sensor_id;sensor_type;location;lat;lon;timestamp;pressure;altitude;pressure_sealevel;temperature;humidity
18819;BME280;9537;45.594;9.294;2023-05-22T00:00:43;99450.47;;;17.59;88.40
18819;BME280;9537;45.594;9.294;2023-05-22T00:01:44;99456.06;;;17.57;89.05
18819;BME280;9537;45.594;9.294;2023-05-22T00:02:49;99449.88;;;17.56;89.24
18819;BME280;9537;45.594;9.294;2023-05-22T00:03:50;99450.31;;;17.53;89.49
18819;BME280;9537;45.594;9.294;2023-05-22T00:04:52;99457.53;;;17.53;88.92
18819;BME280;9537;45.594;9.294;2023-05-22T00:05:54;99454.50;;;17.49;89.16
18819;BME280;9537;45.594;9.294;2023-05-22T00:06:58;99449.16;;;17.49;89.13
18819;BME280;9537;45.594;9.294;2023-05-22T00:07:59;99455.13;;;17.45;89.59
18819;BME280;9537;45.594;9.294;2023-05-22T00:09:01;99448.38;;;17.42;90.18
18819;BME280;9537;45.594;9.294;2023-05-22T00:10:03;99457.25;;;17.43;90.41
18819;BME280;9537;45.594;9.294;2023-05-22T00:11:05;99453.53;;;17.44;90.56
18819;BME280;9537;45.594;9.294;2023-05-22T00:12:09;99454.34;;;17.44;90.47
18819;BME280;9537;45.594;9.294;2023-05-22T00:13:11;99457.59;;;17.46;90.67
18819;BME280;9537;45.594;9.294;2023-05-22T00:14:12;99454.94;;;17.46;90.70
18819;BME280;9537;45.594;9.294;2023-05-22T00:15:14;99455.53;;;17.48;90.74
18819;BME280;9537;45.594;9.294;2023-05-22T00:16:15;99453.06;;;17.47;90.79
18819;BME280;9537;45.594;9.294;2023-05-22T00:17:17;99448.09;;;17.50;90.38
18819;BME280;9537;45.594;9.294;2023-05-22T00:18:18;99452.63;;;17.50;90.33
18819;BME280;9537;45.594;9.294;2023-05-22T00:19:20;99453.06;;;17.47;89.43
18819;BME280;9537;45.594;9.294;2023-05-22T00:20:22;99455.38;;;17.43;89.50
18819;BME280;9537;45.594;9.294;2023-05-22T00:21:26;99458.06;;;17.43;89.18
18819;BME280;9537;45.594;9.294;2023-05-22T00:22:27;99455.22;;;17.38;89.31
18819;BME280;9537;45.594;9.294;2023-05-22T00:23:31;99446.16;;;17.39;89.09
18819;BME280;9537;45.594;9.294;2023-05-22T00:24:32;99452.63;;;17.31;89.35
18819;BME280;9537;45.594;9.294;2023-05-22T00:25:34;99450.53;;;17.33;89.20
18819;BME280;9537;45.594;9.294;2023-05-22T00:26:36;99454.06;;;17.34;89.27
18819;BME280;9537;45.594;9.294;2023-05-22T00:27:39;99455.88;;;17.33;89.36
18819;BME280;9537;45.594;9.294;2023-05-22T00:28:40;99451.78;;;17.31;89.36
18819;BME280;9537;45.594;9.294;2023-05-22T00:29:42;99451.59;;;17.32;89.34
18819;BME280;9537;45.594;9.294;2023-05-22T00:30:43;99451.78;;;17.31;89.47
18819;BME280;9537;45.594;9.294;2023-05-22T00:31:46;99448.91;;;17.32;89.64
18819;BME280;9537;45.594;9.294;2023-05-22T00:32:47;99447.06;;;17.33;89.72
18819;BME280;9537;45.594;9.294;2023-05-22T00:33:49;99450.78;;;17.32;90.33
18819;BME280;9537;45.594;9.294;2023-05-22T00:34:50;99449.53;;;17.34;90.17
18819;BME280;9537;45.594;9.294;2023-05-22T00:35:52;99448.72;;;17.34;90.45
18819;BME280;9537;45.594;9.294;2023-05-22T00:36:53;99444.75;;;17.37;90.55
18819;BME280;9537;45.594;9.294;2023-05-22T00:37:55;99444.53;;;17.38;90.70
18819;BME280;9537;45.594;9.294;2023-05-22T00:38:56;99452.56;;;17.38;90.90
18819;BME280;9537;45.594;9.294;2023-05-22T00:39:58;99442.31;;;17.35;90.47
18819;BME280;9537;45.594;9.294;2023-05-22T00:40:59;99447.28;;;17.31;89.76
18819;BME280;9537;45.594;9.294;2023-05-22T00:42:02;99447.13;;;17.26;89.59
18819;BME280;9537;45.594;9.294;2023-05-22T00:43:05;99442.25;;;17.23;89.72
18819;BME280;9537;45.594;9.294;2023-05-22T00:44:08;99441.19;;;17.24;89.39
18819;BME280;9537;45.594;9.294;2023-05-22T00:45:11;99449.19;;;17.24;89.59
18819;BME280;9537;45.594;9.294;2023-05-22T00:46:13;99442.81;;;17.25;89.66
18819;BME280;9537;45.594;9.294;2023-05-22T00:47:15;99445.50;;;17.25;89.76
18819;BME280;9537;45.594;9.294;2023-05-22T00:48:17;99435.66;;;17.26;89.83
18819;BME280;9537;45.594;9.294;2023-05-22T00:49:18;99431.94;;;17.27;90.02
18819;BME280;9537;45.594;9.294;2023-05-22T00:50:20;99439.34;;;17.25;90.05
18819;BME280;9537;45.594;9.294;2023-05-22T00:51:21;99434.25;;;17.23;89.82
18819;BME280;9537;45.594;9.294;2023-05-22T00:52:24;99441.44;;;17.23;89.78
18819;BME280;9537;45.594;9.294;2023-05-22T00:53:27;99439.22;;;17.20;89.76
18819;BME280;9537;45.594;9.294;2023-05-22T00:54:31;99439.78;;;17.22;89.63
18819;BME280;9537;45.594;9.294;2023-05-22T00:55:32;99441.88;;;17.20;89.51
18819;BME280;9537;45.594;9.294;2023-05-22T00:56:35;99443.50;;;17.21;89.73
18819;BME280;9537;45.594;9.294;2023-05-22T00:57:37;99444.31;;;17.21;89.94
18819;BME280;9537;45.594;9.294;2023-05-22T00:58:41;99439.78;;;17.22;90.00
18819;BME280;9537;45.594;9.294;2023-05-22T00:59:42;99450.47;;;17.22;90.06
18819;BME280;9537;45.594;9.294;2023-05-22T01:00:45;99445.72;;;17.24;90.36
18819;BME280;9537;45.594;9.294;2023-05-22T01:01:46;99441.44;;;17.23;90.52
18819;BME280;9537;45.594;9.294;2023-05-22T01:02:49;99449.19;;;17.24;90.68
18819;BME280;9537;45.594;9.294;2023-05-22T01:03:51;99449.81;;;17.26;90.91
18819;BME280;9537;45.594;9.294;2023-05-22T01:04:55;99443.88;;;17.24;91.18
18819;BME280;9537;45.594;9.294;2023-05-22T01:05:57;99449.00;;;17.26;91.33
18819;BME280;9537;45.594;9.294;2023-05-22T01:06:59;99448.16;;;17.25;91.76
18819;BME280;9537;45.594;9.294;2023-05-22T01:08:03;99449.81;;;17.26;91.78
18819;BME280;9537;45.594;9.294;2023-05-22T01:09:06;99447.34;;;17.25;91.60
18819;BME280;9537;45.594;9.294;2023-05-22T01:10:08;99455.00;;;17.21;90.95
18819;BME280;9537;45.594;9.294;2023-05-22T01:11:15;99452.75;;;17.18;90.61
18819;BME280;9537;45.594;9.294;2023-05-22T01:12:23;99447.63;;;17.17;90.46
18819;BME280;9537;45.594;9.294;2023-05-22T01:13:34;99446.44;;;17.13;89.97
18819;BME280;9537;45.594;9.294;2023-05-22T01:14:46;99446.09;;;17.09;90.04
18819;BME280;9537;45.594;9.294;2023-05-22T01:15:55;99447.34;;;17.06;89.62
18819;BME280;9537;45.594;9.294;2023-05-22T01:17:06;99446.97;;;17.03;89.85
18819;BME280;9537;45.594;9.294;2023-05-22T01:18:20;99442.44;;;17.03;89.86
18819;BME280;9537;45.594;9.294;2023-05-22T01:19:51;99442.44;;;17.03;90.21
18819;BME280;9537;45.594;9.294;2023-05-22T01:21:05;99444.06;;;17.04;90.23
18819;BME280;9537;45.594;9.294;2023-05-22T01:22:21;99447.78;;;17.03;90.31
18819;BME280;9537;45.594;9.294;2023-05-22T01:24:07;99458.44;;;17.03;90.56
18819;BME280;9537;45.594;9.294;2023-05-22T01:25:31;99502.75;;;17.04;90.95
18819;BME280;9537;45.594;9.294;2023-05-22T01:27:02;99510.13;;;17.09;91.49
18819;BME280;9537;45.594;9.294;2023-05-22T01:28:19;99507.22;;;17.10;91.94
18819;BME280;9537;45.594;9.294;2023-05-22T01:29:33;99487.09;;;17.15;91.62
18819;BME280;9537;45.594;9.294;2023-05-22T01:30:46;99477.22;;;17.15;90.68
18819;BME280;9537;45.594;9.294;2023-05-22T01:31:49;99495.91;;;17.15;90.56
18819;BME280;9537;45.594;9.294;2023-05-22T01:32:55;99504.28;;;17.19;90.44
18819;BME280;9537;45.594;9.294;2023-05-22T01:33:59;99494.03;;;17.16;90.76
18819;BME280;9537;45.594;9.294;2023-05-22T01:35:07;99496.50;;;17.17;90.78
18819;BME280;9537;45.594;9.294;2023-05-22T01:36:12;99503.47;;;17.18;91.07
18819;BME280;9537;45.594;9.294;2023-05-22T01:37:14;99504.28;;;17.19;91.71
18819;BME280;9537;45.594;9.294;2023-05-22T01:38:18;99500.19;;;17.16;92.01
18819;BME280;9537;45.594;9.294;2023-05-22T01:39:20;99498.94;;;17.19;91.96
18819;BME280;9537;45.594;9.294;2023-05-22T01:40:24;99495.91;;;17.15;92.46
18819;BME280;9537;45.594;9.294;2023-05-22T01:41:26;99500.00;;;17.18;92.67
18819;BME280;9537;45.594;9.294;2023-05-22T01:42:30;99500.00;;;17.18;92.59
18819;BME280;9537;45.594;9.294;2023-05-22T01:43:31;99495.91;;;17.15;92.86
18819;BME280;9537;45.594;9.294;2023-05-22T01:44:32;99501.25;;;17.15;92.90
18819;BME280;9537;45.594;9.294;2023-05-22T01:45:33;99490.31;;;17.17;92.84
18819;BME280;9537;45.594;9.294;2023-05-22T01:46:37;99496.09;;;17.14;93.04
18819;BME280;9537;45.594;9.294;2023-05-22T01:47:38;99501.44;;;17.14;92.91
18819;BME280;9537;45.594;9.294;2023-05-22T01:48:40;99501.44;;;17.14;92.94
18819;BME280;9537;45.594;9.294;2023-05-22T01:49:42;99496.34;;;17.12;93.21
18819;BME280;9537;45.594;9.294;2023-05-22T01:50:47;99496.09;;;17.14;93.35
18819;BME280;9537;45.594;9.294;2023-05-22T01:51:51;99495.91;;;17.15;93.24
18819;BME280;9537;45.594;9.294;2023-05-22T01:52:59;99500.19;;;17.16;93.10
18819;BME280;9537;45.594;9.294;2023-05-22T01:54:07;99494.47;;;17.13;93.40
18819;BME280;9537;45.594;9.294;2023-05-22T01:55:15;99489.16;;;17.13;93.85
18819;BME280;9537;45.594;9.294;2023-05-22T01:56:23;99501.44;;;17.14;93.56
18819;BME280;9537;45.594;9.294;2023-05-22T01:57:33;99493.44;;;17.14;93.93
18819;BME280;9537;45.594;9.294;2023-05-22T01:58:41;99494.28;;;17.14;93.89
18819;BME280;9537;45.594;9.294;2023-05-22T01:59:48;99492.88;;;17.11;93.82
18819;BME280;9537;45.594;9.294;2023-05-22T02:00:51;99496.78;;;17.09;93.57
18819;BME280;9537;45.594;9.294;2023-05-22T02:01:57;99489.22;;;17.06;93.70
18819;BME280;9537;45.594;9.294;2023-05-22T02:03:06;99488.63;;;17.04;93.91
18819;BME280;9537;45.594;9.294;2023-05-22T02:04:09;99494.16;;;17.02;93.98
18819;BME280;9537;45.594;9.294;2023-05-22T02:05:15;99499.50;;;17.02;94.16
18819;BME280;9537;45.594;9.294;2023-05-22T02:06:18;99493.75;;;17.05;93.92
18819;BME280;9537;45.594;9.294;2023-05-22T02:07:21;99501.75;;;17.05;94.07
18819;BME280;9537;45.594;9.294;2023-05-22T02:08:25;99496.19;;;17.07;93.96
18819;BME280;9537;45.594;9.294;2023-05-22T02:09:28;99489.59;;;17.09;93.85
18819;BME280;9537;45.594;9.294;2023-05-22T02:10:32;99488.53;;;17.10;93.68
18819;BME280;9537;45.594;9.294;2023-05-22T02:11:36;99482.41;;;17.10;93.97
18819;BME280;9537;45.594;9.294;2023-05-22T02:12:39;99490.78;;;17.14;93.77
18819;BME280;9537;45.594;9.294;2023-05-22T02:13:42;99486.84;;;17.16;93.42
18819;BME280;9537;45.594;9.294;2023-05-22T02:14:44;99487.44;;;17.18;93.37
18819;BME280;9537;45.594;9.294;2023-05-22T02:15:46;99485.00;;;17.17;93.67
18819;BME280;9537;45.594;9.294;2023-05-22T02:16:48;99484.78;;;17.18;93.81
18819;BME280;9537;45.594;9.294;2023-05-22T02:17:52;99472.25;;;17.19;93.66
18819;BME280;9537;45.594;9.294;2023-05-22T02:18:58;99480.88;;;17.21;93.26
18819;BME280;9537;45.594;9.294;2023-05-22T02:20:09;99478.34;;;17.26;92.77
18819;BME280;9537;45.594;9.294;2023-05-22T02:21:13;99479.38;;;17.25;92.85
18819;BME280;9537;45.594;9.294;2023-05-22T02:22:16;99485.13;;;17.28;92.72
18819;BME280;9537;45.594;9.294;2023-05-22T02:23:17;99480.94;;;17.32;92.12
18819;BME280;9537;45.594;9.294;2023-05-22T02:24:20;99477.03;;;17.35;91.54
18819;BME280;9537;45.594;9.294;2023-05-22T02:25:23;99481.31;;;17.36;91.16
18819;BME280;9537;45.594;9.294;2023-05-22T02:26:25;99469.38;;;17.39;90.94
18819;BME280;9537;45.594;9.294;2023-05-22T02:27:26;99477.75;;;17.42;91.14
18819;BME280;9537;45.594;9.294;2023-05-22T02:28:28;99476.13;;;17.41;91.36
18819;BME280;9537;45.594;9.294;2023-05-22T02:29:29;99474.06;;;17.43;91.32
18819;BME280;9537;45.594;9.294;2023-05-22T02:30:31;99466.06;;;17.43;91.36
18819;BME280;9537;45.594;9.294;2023-05-22T02:31:32;99478.59;;;17.43;91.63
18819;BME280;9537;45.594;9.294;2023-05-22T02:32:34;99467.31;;;17.41;91.65
18819;BME280;9537;45.594;9.294;2023-05-22T02:33:37;99465.66;;;17.40;92.23
18819;BME280;9537;45.594;9.294;2023-05-22T02:34:39;99461.63;;;17.37;92.70
18819;BME280;9537;45.594;9.294;2023-05-22T02:35:40;99466.13;;;17.37;92.99
18819;BME280;9537;45.594;9.294;2023-05-22T02:36:42;99467.53;;;17.39;93.16
18819;BME280;9537;45.594;9.294;2023-05-22T02:37:43;99463.22;;;17.38;94.29
18819;BME280;9537;45.594;9.294;2023-05-22T02:38:45;99469.19;;;17.40;94.43
18819;BME280;9537;45.594;9.294;2023-05-22T02:39:46;99469.19;;;17.40;94.63
18819;BME280;9537;45.594;9.294;2023-05-22T02:40:48;99462.19;;;17.39;94.58
18819;BME280;9537;45.594;9.294;2023-05-22T02:41:49;99463.22;;;17.38;94.85
18819;BME280;9537;45.594;9.294;2023-05-22T02:42:52;99467.75;;;17.38;94.74
18819;BME280;9537;45.594;9.294;2023-05-22T02:43:53;99462.41;;;17.38;95.09
18819;BME280;9537;45.594;9.294;2023-05-22T02:44:55;99474.72;;;17.39;95.30
18819;BME280;9537;45.594;9.294;2023-05-22T02:45:56;99464.66;;;17.41;95.12
18819;BME280;9537;45.594;9.294;2023-05-22T02:46:58;99474.28;;;17.42;95.19
18819;BME280;9537;45.594;9.294;2023-05-22T02:47:59;99470.78;;;17.41;95.44
18819;BME280;9537;45.594;9.294;2023-05-22T02:49:04;99472.22;;;17.44;95.41
18819;BME280;9537;45.594;9.294;2023-05-22T02:50:06;99472.81;;;17.46;95.42
18819;BME280;9537;45.594;9.294;2023-05-22T02:51:08;99467.69;;;17.44;95.30
18819;BME280;9537;45.594;9.294;2023-05-22T02:52:09;99474.06;;;17.43;95.05
18819;BME280;9537;45.594;9.294;2023-05-22T02:53:11;99475.94;;;17.43;95.00
18819;BME280;9537;45.594;9.294;2023-05-22T02:54:14;99483.50;;;17.46;94.00
18819;BME280;9537;45.594;9.294;2023-05-22T02:55:16;99476.91;;;17.48;93.58
18819;BME280;9537;45.594;9.294;2023-05-22T02:56:17;99482.44;;;17.47;92.90
18819;BME280;9537;45.594;9.294;2023-05-22T02:57:20;99481.63;;;17.46;92.70
18819;BME280;9537;45.594;9.294;2023-05-22T02:58:21;99478.97;;;17.46;92.32
18819;BME280;9537;45.594;9.294;2023-05-22T02:59:24;99480.59;;;17.47;92.25
18819;BME280;9537;45.594;9.294;2023-05-22T03:00:25;99480.59;;;17.47;92.08
18819;BME280;9537;45.594;9.294;2023-05-22T03:01:28;99488.16;;;17.50;91.65
18819;BME280;9537;45.594;9.294;2023-05-22T03:02:30;99485.47;;;17.50;91.52
18819;BME280;9537;45.594;9.294;2023-05-22T03:03:32;99489.19;;;17.49;91.74
18819;BME280;9537;45.594;9.294;2023-05-22T03:04:35;99487.56;;;17.48;91.71
18819;BME280;9537;45.594;9.294;2023-05-22T03:05:38;99486.72;;;17.48;91.58
18819;BME280;9537;45.594;9.294;2023-05-22T03:06:39;99483.50;;;17.46;91.81
18819;BME280;9537;45.594;9.294;2023-05-22T03:07:42;99482.66;;;17.45;91.95
18819;BME280;9537;45.594;9.294;2023-05-22T03:08:43;99478.97;;;17.46;92.29
18819;BME280;9537;45.594;9.294;2023-05-22T03:09:47;99483.50;;;17.46;92.62
18819;BME280;9537;45.594;9.294;2023-05-22T03:10:49;99482.66;;;17.45;92.64
18819;BME280;9537;45.594;9.294;2023-05-22T03:11:51;99488.84;;;17.46;91.98
18819;BME280;9537;45.594;9.294;2023-05-22T03:12:52;99490.66;;;17.45;92.02
18819;BME280;9537;45.594;9.294;2023-05-22T03:13:54;99493.34;;;17.45;92.24
18819;BME280;9537;45.594;9.294;2023-05-22T03:14:55;99499.50;;;17.46;92.75
18819;BME280;9537;45.594;9.294;2023-05-22T03:15:57;99497.66;;;17.46;92.91
18819;BME280;9537;45.594;9.294;2023-05-22T03:16:59;99497.06;;;17.44;93.31
18819;BME280;9537;45.594;9.294;2023-05-22T03:18:01;99489.03;;;17.44;93.45
18819;BME280;9537;45.594;9.294;2023-05-22T03:19:08;99498.09;;;17.43;93.84
18819;BME280;9537;45.594;9.294;2023-05-22T03:20:12;99499.13;;;17.42;94.42
18819;BME280;9537;45.594;9.294;2023-05-22T03:21:16;99499.72;;;17.44;94.66
18819;BME280;9537;45.594;9.294;2023-05-22T03:22:18;99499.72;;;17.44;94.95
18819;BME280;9537;45.594;9.294;2023-05-22T03:23:20;99497.28;;;17.43;95.15
18819;BME280;9537;45.594;9.294;2023-05-22T03:24:22;99497.06;;;17.44;95.28
18819;BME280;9537;45.594;9.294;2023-05-22T03:25:23;99494.97;;;17.46;95.48
18819;BME280;9537;45.594;9.294;2023-05-22T03:26:25;99498.09;;;17.43;95.88
18819;BME280;9537;45.594;9.294;2023-05-22T03:27:28;99506.31;;;17.42;96.05
18819;BME280;9537;45.594;9.294;2023-05-22T03:28:30;99502.84;;;17.41;96.18
18819;BME280;9537;45.594;9.294;2023-05-22T03:29:31;99510.03;;;17.41;95.91
18819;BME280;9537;45.594;9.294;2023-05-22T03:30:33;99508.97;;;17.42;95.83
18819;BME280;9537;45.594;9.294;2023-05-22T03:31:34;99518.41;;;17.44;95.87
18819;BME280;9537;45.594;9.294;2023-05-22T03:32:36;99516.78;;;17.43;95.63
18819;BME280;9537;45.594;9.294;2023-05-22T03:33:38;99512.25;;;17.44;95.44
18819;BME280;9537;45.594;9.294;2023-05-22T03:34:40;99505.88;;;17.45;94.84
18819;BME280;9537;45.594;9.294;2023-05-22T03:35:42;99504.00;;;17.45;94.69
18819;BME280;9537;45.594;9.294;2023-05-22T03:36:44;99510.41;;;17.44;94.81
18819;BME280;9537;45.594;9.294;2023-05-22T03:37:47;99511.22;;;17.45;94.66
18819;BME280;9537;45.594;9.294;2023-05-22T03:38:48;99507.97;;;17.43;94.63
18819;BME280;9537;45.594;9.294;2023-05-22T03:39:50;99516.38;;;17.40;95.07
18819;BME280;9537;45.594;9.294;2023-05-22T03:40:51;99515.38;;;17.41;95.12
18819;BME280;9537;45.594;9.294;2023-05-22T03:41:54;99517.22;;;17.40;95.30
18819;BME280;9537;45.594;9.294;2023-05-22T03:42:55;99511.03;;;17.40;95.65
18819;BME280;9537;45.594;9.294;2023-05-22T03:43:57;99509.78;;;17.42;95.61
18819;BME280;9537;45.594;9.294;2023-05-22T03:44:58;99509.22;;;17.40;95.87
18819;BME280;9537;45.594;9.294;2023-05-22T03:46:00;99513.72;;;17.40;96.13
18819;BME280;9537;45.594;9.294;2023-05-22T03:47:01;99512.69;;;17.41;96.05
18819;BME280;9537;45.594;9.294;2023-05-22T03:48:04;99507.13;;;17.42;96.13
18819;BME280;9537;45.594;9.294;2023-05-22T03:49:05;99507.13;;;17.42;96.24
18819;BME280;9537;45.594;9.294;2023-05-22T03:50:08;99509.34;;;17.45;95.43
18819;BME280;9537;45.594;9.294;2023-05-22T03:51:10;99502.63;;;17.43;95.34
18819;BME280;9537;45.594;9.294;2023-05-22T03:52:12;99512.69;;;17.41;95.39
18819;BME280;9537;45.594;9.294;2023-05-22T03:53:13;99510.84;;;17.41;95.45
18819;BME280;9537;45.594;9.294;2023-05-22T03:54:15;99509.78;;;17.42;95.51
18819;BME280;9537;45.594;9.294;2023-05-22T03:55:16;99504.91;;;17.39;95.08
18819;BME280;9537;45.594;9.294;2023-05-22T03:56:18;99510.25;;;17.39;94.86
18819;BME280;9537;45.594;9.294;2023-05-22T03:57:19;99503.66;;;17.42;94.79
18819;BME280;9537;45.594;9.294;2023-05-22T03:58:21;99508.38;;;17.40;95.10
18819;BME280;9537;45.594;9.294;2023-05-22T03:59:25;99503.28;;;17.38;95.42
18819;BME280;9537;45.594;9.294;2023-05-22T04:00:27;99507.00;;;17.37;95.68
18819;BME280;9537;45.594;9.294;2023-05-22T04:01:28;99500.16;;;17.41;95.06
18819;BME280;9537;45.594;9.294;2023-05-22T04:02:30;99498.53;;;17.40;94.99
18819;BME280;9537;45.594;9.294;2023-05-22T04:03:31;99498.31;;;17.42;95.01
18819;BME280;9537;45.594;9.294;2023-05-22T04:04:33;99494.81;;;17.41;94.84
18819;BME280;9537;45.594;9.294;2023-05-22T04:05:38;99497.94;;;17.38;95.21
18819;BME280;9537;45.594;9.294;2023-05-22T04:06:41;99501.41;;;17.39;95.56
18819;BME280;9537;45.594;9.294;2023-05-22T04:07:43;99496.88;;;17.39;95.09
18819;BME280;9537;45.594;9.294;2023-05-22T04:08:45;99486.44;;;17.38;95.30
18819;BME280;9537;45.594;9.294;2023-05-22T04:09:46;99498.97;;;17.37;95.12
18819;BME280;9537;45.594;9.294;2023-05-22T04:10:48;99498.38;;;17.35;95.18
18819;BME280;9537;45.594;9.294;2023-05-22T04:11:49;99486.91;;;17.34;95.22
18819;BME280;9537;45.594;9.294;2023-05-22T04:12:52;99495.91;;;17.33;95.22
18819;BME280;9537;45.594;9.294;2023-05-22T04:13:53;99499.25;;;17.29;95.56
18819;BME280;9537;45.594;9.294;2023-05-22T04:14:55;99500.69;;;17.31;95.88
18819;BME280;9537;45.594;9.294;2023-05-22T04:15:57;99501.69;;;17.30;95.57
18819;BME280;9537;45.594;9.294;2023-05-22T04:16:58;99498.66;;;17.27;95.52
18819;BME280;9537;45.594;9.294;2023-05-22T04:18:00;99504.00;;;17.27;95.53
18819;BME280;9537;45.594;9.294;2023-05-22T04:19:02;99504.44;;;17.24;96.01
18819;BME280;9537;45.594;9.294;2023-05-22T04:20:04;99496.88;;;17.21;95.86
18819;BME280;9537;45.594;9.294;2023-05-22T04:21:06;99501.78;;;17.24;95.69
18819;BME280;9537;45.594;9.294;2023-05-22T04:22:10;99493.78;;;17.24;95.49
18819;BME280;9537;45.594;9.294;2023-05-22T04:23:12;99498.06;;;17.25;95.46
18819;BME280;9537;45.594;9.294;2023-05-22T04:24:13;99491.69;;;17.26;95.21
18819;BME280;9537;45.594;9.294;2023-05-22T04:25:15;99491.25;;;17.29;94.95
18819;BME280;9537;45.594;9.294;2023-05-22T04:26:16;99487.78;;;17.28;95.01
18819;BME280;9537;45.594;9.294;2023-05-22T04:27:20;99482.44;;;17.28;94.85
18819;BME280;9537;45.594;9.294;2023-05-22T04:28:22;99481.22;;;17.24;94.89
18819;BME280;9537;45.594;9.294;2023-05-22T04:29:24;99490.66;;;17.27;94.85
18819;BME280;9537;45.594;9.294;2023-05-22T04:30:26;99484.88;;;17.30;94.54
18819;BME280;9537;45.594;9.294;2023-05-22T04:31:28;99491.03;;;17.30;94.06
18819;BME280;9537;45.594;9.294;2023-05-22T04:32:29;99489.59;;;17.28;94.20
18819;BME280;9537;45.594;9.294;2023-05-22T04:33:32;99491.03;;;17.30;94.32
18819;BME280;9537;45.594;9.294;2023-05-22T04:34:34;99498.22;;;17.30;94.13
18819;BME280;9537;45.594;9.294;2023-05-22T04:35:37;99502.75;;;17.29;94.51
18819;BME280;9537;45.594;9.294;2023-05-22T04:36:38;99497.16;;;17.31;94.61
18819;BME280;9537;45.594;9.294;2023-05-22T04:37:41;99503.56;;;17.30;94.76
18819;BME280;9537;45.594;9.294;2023-05-22T04:38:45;99499.84;;;17.31;94.54
18819;BME280;9537;45.594;9.294;2023-05-22T04:39:47;99504.59;;;17.29;95.10
18819;BME280;9537;45.594;9.294;2023-05-22T04:40:48;99498.47;;;17.28;94.97
18819;BME280;9537;45.594;9.294;2023-05-22T04:41:50;99501.69;;;17.30;95.09
18819;BME280;9537;45.594;9.294;2023-05-22T04:42:51;99500.06;;;17.29;94.96
18819;BME280;9537;45.594;9.294;2023-05-22T04:43:54;99500.88;;;17.30;94.70
18819;BME280;9537;45.594;9.294;2023-05-22T04:44:55;99502.75;;;17.29;94.80
18819;BME280;9537;45.594;9.294;2023-05-22T04:45:58;99512.81;;;17.27;94.86
18819;BME280;9537;45.594;9.294;2023-05-22T04:46:59;99513.63;;;17.28;94.64
18819;BME280;9537;45.594;9.294;2023-05-22T04:48:02;99513.19;;;17.31;94.28
18819;BME280;9537;45.594;9.294;2023-05-22T04:49:03;99518.53;;;17.31;94.51
18819;BME280;9537;45.594;9.294;2023-05-22T04:50:06;99516.91;;;17.30;94.50
18819;BME280;9537;45.594;9.294;2023-05-22T04:51:07;99522.47;;;17.28;94.53
18819;BME280;9537;45.594;9.294;2023-05-22T04:52:10;99524.53;;;17.26;94.81
18819;BME280;9537;45.594;9.294;2023-05-22T04:53:12;99512.81;;;17.27;94.95
18819;BME280;9537;45.594;9.294;2023-05-22T04:54:14;99522.69;;;17.27;95.24
18819;BME280;9537;45.594;9.294;2023-05-22T04:55:15;99517.94;;;17.29;95.40
18819;BME280;9537;45.594;9.294;2023-05-22T04:56:18;99515.50;;;17.27;95.40
18819;BME280;9537;45.594;9.294;2023-05-22T04:57:19;99519.19;;;17.26;95.27
18819;BME280;9537;45.594;9.294;2023-05-22T04:58:27;99517.56;;;17.25;95.53
18819;BME280;9537;45.594;9.294;2023-05-22T04:59:29;99512.22;;;17.25;95.85
18819;BME280;9537;45.594;9.294;2023-05-22T05:00:33;99514.06;;;17.25;95.93
18819;BME280;9537;45.594;9.294;2023-05-22T05:01:34;99514.88;;;17.25;95.98
18819;BME280;9537;45.594;9.294;2023-05-22T05:02:37;99514.47;;;17.28;96.10
18819;BME280;9537;45.594;9.294;2023-05-22T05:03:38;99515.28;;;17.29;96.08
18819;BME280;9537;45.594;9.294;2023-05-22T05:04:40;99506.47;;;17.28;96.26
18819;BME280;9537;45.594;9.294;2023-05-22T05:05:41;99502.94;;;17.28;96.33
18819;BME280;9537;45.594;9.294;2023-05-22T05:06:44;99501.94;;;17.29;96.27
18819;BME280;9537;45.594;9.294;2023-05-22T05:07:47;99504.38;;;17.30;96.23
18819;BME280;9537;45.594;9.294;2023-05-22T05:08:51;99507.28;;;17.29;96.46
18819;BME280;9537;45.594;9.294;2023-05-22T05:09:52;99497.16;;;17.31;95.94
18819;BME280;9537;45.594;9.294;2023-05-22T05:10:54;99507.28;;;17.29;95.85
18819;BME280;9537;45.594;9.294;2023-05-22T05:11:55;99501.50;;;17.32;95.59
18819;BME280;9537;45.594;9.294;2023-05-22T05:12:57;99499.63;;;17.32;95.46
18819;BME280;9537;45.594;9.294;2023-05-22T05:13:59;99499.63;;;17.32;95.41
18819;BME280;9537;45.594;9.294;2023-05-22T05:15:01;99505.19;;;17.31;95.18
18819;BME280;9537;45.594;9.294;2023-05-22T05:16:02;99506.38;;;17.35;95.06
18819;BME280;9537;45.594;9.294;2023-05-22T05:17:04;99498.38;;;17.35;94.97
18819;BME280;9537;45.594;9.294;2023-05-22T05:18:06;99501.66;;;17.37;94.51
18819;BME280;9537;45.594;9.294;2023-05-22T05:19:07;99500.59;;;17.38;94.24
18819;BME280;9537;45.594;9.294;2023-05-22T05:20:10;99500.00;;;17.36;94.46
18819;BME280;9537;45.594;9.294;2023-05-22T05:21:13;99504.91;;;17.39;94.38
18819;BME280;9537;45.594;9.294;2023-05-22T05:22:15;99505.72;;;17.40;94.61
18819;BME280;9537;45.594;9.294;2023-05-22T05:23:16;99500.59;;;17.38;94.57
18819;BME280;9537;45.594;9.294;2023-05-22T05:24:20;99499.56;;;17.39;94.59
18819;BME280;9537;45.594;9.294;2023-05-22T05:25:21;99503.28;;;17.38;94.74
18819;BME280;9537;45.594;9.294;2023-05-22T05:26:23;99498.75;;;17.39;94.67
18819;BME280;9537;45.594;9.294;2023-05-22T05:27:24;99504.09;;;17.39;94.74
18819;BME280;9537;45.594;9.294;2023-05-22T05:28:26;99502.22;;;17.39;94.87
18819;BME280;9537;45.594;9.294;2023-05-22T05:29:27;99503.28;;;17.38;95.04
18819;BME280;9537;45.594;9.294;2023-05-22T05:30:29;99507.00;;;17.37;94.94
18819;BME280;9537;45.594;9.294;2023-05-22T05:31:31;99508.63;;;17.38;94.63
18819;BME280;9537;45.594;9.294;2023-05-22T05:32:33;99503.47;;;17.37;94.60
18819;BME280;9537;45.594;9.294;2023-05-22T05:33:34;99509.44;;;17.39;94.58
18819;BME280;9537;45.594;9.294;2023-05-22T05:34:36;99502.03;;;17.41;93.50
18819;BME280;9537;45.594;9.294;2023-05-22T05:35:37;99507.13;;;17.42;93.51
18819;BME280;9537;45.594;9.294;2023-05-22T05:36:39;99500.97;;;17.42;93.36
18819;BME280;9537;45.594;9.294;2023-05-22T05:37:41;99503.66;;;17.42;93.17
18819;BME280;9537;45.594;9.294;2023-05-22T05:38:43;99507.72;;;17.44;93.15